sensor_id;sensor_type;location;lat;lon;timestamp;P1;durP1;ratioP1;P2;durP2;ratioP2
10894;SDS011;5500;49.886;8.074;2022-10-16T00:01:14;2.77;;;1.30;;
10894;SDS011;5500;49.886;8.074;2022-10-16T00:03:44;2.73;;;1.37;;
10894;SDS011;5500;49.886;8.074;2022-10-16T00:06:14;3.60;;;1.30;;
10894;SDS011;5500;49.886;8.074;2022-10-16T00:08:43;2.60;;;1.20;;
10894;SDS011;5500;49.886;8.074;2022-10-16T00:11:12;1.43;;;1.30;;
10894;SDS011;5500;49.886;8.074;2022-10-16T00:13:41;3.30;;;1.50;;
10894;SDS011;5500;49.886;8.074;2022-10-16T00:16:09;1.40;;;1.30;;
10894;SDS011;5500;49.886;8.074;2022-10-16T00:18:38;1.90;;;1.40;;
10894;SDS011;5500;49.886;8.074;2022-10-16T00:21:08;2.97;;;1.40;;
10894;SDS011;5500;49.886;8.074;2022-10-16T00:23:37;1.97;;;1.23;;
10894;SDS011;5500;49.886;8.074;2022-10-16T00:26:05;3.27;;;1.23;;
10894;SDS011;5500;49.886;8.074;2022-10-16T00:28:34;4.17;;;1.40;;
10894;SDS011;5500;49.886;8.074;2022-10-16T00:31:02;1.83;;;1.43;;
10894;SDS011;5500;49.886;8.074;2022-10-16T00:33:31;2.93;;;1.60;;
10894;SDS011;5500;49.886;8.074;2022-10-16T00:35:59;1.33;;;1.23;;
10894;SDS011;5500;49.886;8.074;2022-10-16T00:38:27;3.97;;;1.50;;
10894;SDS011;5500;49.886;8.074;2022-10-16T00:40:55;1.50;;;1.40;;
10894;SDS011;5500;49.886;8.074;2022-10-16T00:43:33;1.40;;;1.17;;
10894;SDS011;5500;49.886;8.074;2022-10-16T00:46:03;2.80;;;1.50;;
10894;SDS011;5500;49.886;8.074;2022-10-16T00:48:33;2.53;;;1.50;;
10894;SDS011;5500;49.886;8.074;2022-10-16T00:51:01;4.23;;;1.93;;
10894;SDS011;5500;49.886;8.074;2022-10-16T00:53:29;1.70;;;1.33;;
10894;SDS011;5500;49.886;8.074;2022-10-16T00:55:57;1.63;;;1.53;;
10894;SDS011;5500;49.886;8.074;2022-10-16T00:58:25;1.73;;;1.40;;
10894;SDS011;5500;49.886;8.074;2022-10-16T01:00:53;1.53;;;1.40;;
10894;SDS011;5500;49.886;8.074;2022-10-16T01:03:25;5.37;;;1.60;;
10894;SDS011;5500;49.886;8.074;2022-10-16T01:05:58;1.43;;;1.33;;
10894;SDS011;5500;49.886;8.074;2022-10-16T01:08:38;3.77;;;1.43;;
10894;SDS011;5500;49.886;8.074;2022-10-16T01:11:11;2.43;;;1.57;;
10894;SDS011;5500;49.886;8.074;2022-10-16T01:13:46;2.30;;;1.47;;
10894;SDS011;5500;49.886;8.074;2022-10-16T01:16:20;3.47;;;1.80;;
10894;SDS011;5500;49.886;8.074;2022-10-16T01:18:54;1.53;;;1.43;;
10894;SDS011;5500;49.886;8.074;2022-10-16T01:21:26;1.50;;;1.40;;
10894;SDS011;5500;49.886;8.074;2022-10-16T01:23:59;4.10;;;1.87;;
10894;SDS011;5500;49.886;8.074;2022-10-16T01:26:32;3.23;;;1.90;;
10894;SDS011;5500;49.886;8.074;2022-10-16T01:29:07;2.43;;;1.60;;
10894;SDS011;5500;49.886;8.074;2022-10-16T01:31:38;1.63;;;1.53;;
10894;SDS011;5500;49.886;8.074;2022-10-16T01:34:08;1.60;;;1.50;;
10894;SDS011;5500;49.886;8.074;2022-10-16T01:36:38;1.77;;;1.67;;
10894;SDS011;5500;49.886;8.074;2022-10-16T01:39:08;2.77;;;1.50;;
10894;SDS011;5500;49.886;8.074;2022-10-16T01:41:39;1.67;;;1.57;;
10894;SDS011;5500;49.886;8.074;2022-10-16T01:44:11;1.73;;;1.30;;
10894;SDS011;5500;49.886;8.074;2022-10-16T01:46:43;1.93;;;1.40;;
10894;SDS011;5500;49.886;8.074;2022-10-16T01:49:13;1.57;;;1.20;;
10894;SDS011;5500;49.886;8.074;2022-10-16T01:51:41;2.00;;;1.10;;
10894;SDS011;5500;49.886;8.074;2022-10-16T01:54:10;1.57;;;1.47;;
10894;SDS011;5500;49.886;8.074;2022-10-16T01:56:39;3.03;;;1.40;;
10894;SDS011;5500;49.886;8.074;2022-10-16T01:59:09;2.80;;;1.40;;
10894;SDS011;5500;49.886;8.074;2022-10-16T02:01:40;1.43;;;1.33;;
10894;SDS011;5500;49.886;8.074;2022-10-16T02:04:11;1.90;;;1.30;;
10894;SDS011;5500;49.886;8.074;2022-10-16T02:06:40;6.47;;;1.60;;
10894;SDS011;5500;49.886;8.074;2022-10-16T02:09:08;2.70;;;1.67;;
10894;SDS011;5500;49.886;8.074;2022-10-16T02:11:36;2.23;;;1.40;;
10894;SDS011;5500;49.886;8.074;2022-10-16T02:14:04;3.23;;;1.57;;
10894;SDS011;5500;49.886;8.074;2022-10-16T02:16:35;3.03;;;1.50;;
10894;SDS011;5500;49.886;8.074;2022-10-16T02:19:04;2.63;;;1.43;;
10894;SDS011;5500;49.886;8.074;2022-10-16T02:21:33;2.47;;;1.70;;
10894;SDS011;5500;49.886;8.074;2022-10-16T02:24:08;1.40;;;1.30;;
10894;SDS011;5500;49.886;8.074;2022-10-16T02:26:40;1.70;;;1.60;;
10894;SDS011;5500;49.886;8.074;2022-10-16T02:29:11;2.20;;;1.63;;
10894;SDS011;5500;49.886;8.074;2022-10-16T02:31:43;3.40;;;1.80;;
10894;SDS011;5500;49.886;8.074;2022-10-16T02:34:13;1.50;;;1.40;;
10894;SDS011;5500;49.886;8.074;2022-10-16T02:36:41;6.10;;;1.30;;
10894;SDS011;5500;49.886;8.074;2022-10-16T02:39:10;2.87;;;1.60;;
10894;SDS011;5500;49.886;8.074;2022-10-16T02:41:38;1.90;;;1.73;;
10894;SDS011;5500;49.886;8.074;2022-10-16T02:44:06;1.90;;;1.70;;
10894;SDS011;5500;49.886;8.074;2022-10-16T02:46:33;3.20;;;1.60;;
10894;SDS011;5500;49.886;8.074;2022-10-16T02:49:02;2.10;;;1.83;;
10894;SDS011;5500;49.886;8.074;2022-10-16T02:51:30;3.50;;;1.73;;
10894;SDS011;5500;49.886;8.074;2022-10-16T02:53:58;1.90;;;1.70;;
10894;SDS011;5500;49.886;8.074;2022-10-16T02:56:25;1.80;;;1.70;;
10894;SDS011;5500;49.886;8.074;2022-10-16T02:58:53;1.90;;;1.80;;
10894;SDS011;5500;49.886;8.074;2022-10-16T03:01:21;4.10;;;1.73;;
10894;SDS011;5500;49.886;8.074;2022-10-16T03:03:48;2.50;;;1.60;;
10894;SDS011;5500;49.886;8.074;2022-10-16T03:06:17;2.77;;;2.07;;
10894;SDS011;5500;49.886;8.074;2022-10-16T03:08:45;1.70;;;1.60;;
10894;SDS011;5500;49.886;8.074;2022-10-16T03:11:13;2.30;;;1.80;;
10894;SDS011;5500;49.886;8.074;2022-10-16T03:13:41;4.03;;;1.90;;
10894;SDS011;5500;49.886;8.074;2022-10-16T03:16:08;2.43;;;1.87;;
10894;SDS011;5500;49.886;8.074;2022-10-16T03:18:36;5.50;;;2.03;;
10894;SDS011;5500;49.886;8.074;2022-10-16T03:21:04;1.70;;;1.57;;
10894;SDS011;5500;49.886;8.074;2022-10-16T03:23:33;4.40;;;1.57;;
10894;SDS011;5500;49.886;8.074;2022-10-16T03:26:00;5.47;;;1.70;;
10894;SDS011;5500;49.886;8.074;2022-10-16T03:28:28;2.20;;;1.40;;
10894;SDS011;5500;49.886;8.074;2022-10-16T03:30:56;3.00;;;1.53;;
10894;SDS011;5500;49.886;8.074;2022-10-16T03:33:23;1.40;;;1.30;;
10894;SDS011;5500;49.886;8.074;2022-10-16T03:35:51;3.63;;;1.20;;
10894;SDS011;5500;49.886;8.074;2022-10-16T03:38:20;1.73;;;1.20;;
10894;SDS011;5500;49.886;8.074;2022-10-16T03:40:49;1.17;;;1.13;;
10894;SDS011;5500;49.886;8.074;2022-10-16T03:43:17;1.13;;;1.00;;
10894;SDS011;5500;49.886;8.074;2022-10-16T03:45:45;2.23;;;1.20;;
10894;SDS011;5500;49.886;8.074;2022-10-16T03:48:12;5.40;;;1.23;;
10894;SDS011;5500;49.886;8.074;2022-10-16T03:50:40;1.00;;;1.00;;
10894;SDS011;5500;49.886;8.074;2022-10-16T03:53:08;1.57;;;1.00;;
10894;SDS011;5500;49.886;8.074;2022-10-16T03:55:36;1.30;;;1.20;;
10894;SDS011;5500;49.886;8.074;2022-10-16T03:58:05;1.10;;;0.80;;
10894;SDS011;5500;49.886;8.074;2022-10-16T04:00:32;3.43;;;0.90;;
10894;SDS011;5500;49.886;8.074;2022-10-16T04:03:00;1.60;;;0.80;;
10894;SDS011;5500;49.886;8.074;2022-10-16T04:05:28;1.03;;;0.80;;
10894;SDS011;5500;49.886;8.074;2022-10-16T04:07:55;1.73;;;0.97;;
10894;SDS011;5500;49.886;8.074;2022-10-16T04:10:23;1.37;;;0.93;;
10894;SDS011;5500;49.886;8.074;2022-10-16T04:12:50;2.97;;;1.00;;
10894;SDS011;5500;49.886;8.074;2022-10-16T04:15:22;2.13;;;0.93;;
10894;SDS011;5500;49.886;8.074;2022-10-16T04:17:49;4.93;;;0.80;;
10894;SDS011;5500;49.886;8.074;2022-10-16T04:20:18;4.33;;;1.30;;
10894;SDS011;5500;49.886;8.074;2022-10-16T04:22:45;2.17;;;0.90;;
10894;SDS011;5500;49.886;8.074;2022-10-16T04:25:13;1.27;;;1.17;;
10894;SDS011;5500;49.886;8.074;2022-10-16T04:27:41;1.53;;;0.93;;
10894;SDS011;5500;49.886;8.074;2022-10-16T04:30:11;0.97;;;0.80;;
10894;SDS011;5500;49.886;8.074;2022-10-16T04:32:40;2.87;;;1.10;;
10894;SDS011;5500;49.886;8.074;2022-10-16T04:35:08;2.03;;;1.20;;
10894;SDS011;5500;49.886;8.074;2022-10-16T04:37:36;2.23;;;1.00;;
10894;SDS011;5500;49.886;8.074;2022-10-16T04:40:04;1.47;;;1.00;;
10894;SDS011;5500;49.886;8.074;2022-10-16T04:42:32;1.10;;;1.00;;
10894;SDS011;5500;49.886;8.074;2022-10-16T04:44:59;1.17;;;1.17;;
10894;SDS011;5500;49.886;8.074;2022-10-16T04:47:27;1.30;;;1.20;;
10894;SDS011;5500;49.886;8.074;2022-10-16T04:49:56;1.07;;;1.07;;
10894;SDS011;5500;49.886;8.074;2022-10-16T04:52:24;4.13;;;1.40;;
10894;SDS011;5500;49.886;8.074;2022-10-16T04:54:52;1.67;;;1.27;;
10894;SDS011;5500;49.886;8.074;2022-10-16T04:57:20;3.67;;;1.40;;
10894;SDS011;5500;49.886;8.074;2022-10-16T04:59:47;1.10;;;1.10;;
10894;SDS011;5500;49.886;8.074;2022-10-16T05:02:15;2.60;;;1.40;;
10894;SDS011;5500;49.886;8.074;2022-10-16T05:04:43;1.30;;;1.20;;
10894;SDS011;5500;49.886;8.074;2022-10-16T05:07:11;1.90;;;1.30;;
10894;SDS011;5500;49.886;8.074;2022-10-16T05:09:39;1.40;;;1.30;;
10894;SDS011;5500;49.886;8.074;2022-10-16T05:12:07;1.83;;;1.40;;
10894;SDS011;5500;49.886;8.074;2022-10-16T05:14:34;1.40;;;1.23;;
10894;SDS011;5500;49.886;8.074;2022-10-16T05:17:02;2.20;;;1.30;;
10894;SDS011;5500;49.886;8.074;2022-10-16T05:19:29;1.73;;;1.40;;
10894;SDS011;5500;49.886;8.074;2022-10-16T05:21:57;2.10;;;1.40;;
10894;SDS011;5500;49.886;8.074;2022-10-16T05:24:26;2.03;;;1.70;;
10894;SDS011;5500;49.886;8.074;2022-10-16T05:26:54;2.23;;;1.50;;
10894;SDS011;5500;49.886;8.074;2022-10-16T05:29:21;5.90;;;1.50;;
10894;SDS011;5500;49.886;8.074;2022-10-16T05:31:50;2.90;;;1.40;;
10894;SDS011;5500;49.886;8.074;2022-10-16T05:34:18;1.50;;;1.30;;
10894;SDS011;5500;49.886;8.074;2022-10-16T05:36:46;2.27;;;1.30;;
10894;SDS011;5500;49.886;8.074;2022-10-16T05:39:14;2.37;;;1.40;;
10894;SDS011;5500;49.886;8.074;2022-10-16T05:41:43;1.40;;;1.30;;
10894;SDS011;5500;49.886;8.074;2022-10-16T05:44:11;2.97;;;1.50;;
10894;SDS011;5500;49.886;8.074;2022-10-16T05:46:38;3.27;;;1.43;;
10894;SDS011;5500;49.886;8.074;2022-10-16T05:49:06;3.17;;;1.60;;
10894;SDS011;5500;49.886;8.074;2022-10-16T05:51:34;2.27;;;1.60;;
10894;SDS011;5500;49.886;8.074;2022-10-16T05:54:01;2.50;;;1.33;;
10894;SDS011;5500;49.886;8.074;2022-10-16T05:56:29;1.30;;;1.20;;
10894;SDS011;5500;49.886;8.074;2022-10-16T05:58:58;1.40;;;1.30;;
10894;SDS011;5500;49.886;8.074;2022-10-16T06:01:25;8.40;;;1.53;;
10894;SDS011;5500;49.886;8.074;2022-10-16T06:03:53;5.60;;;1.53;;
10894;SDS011;5500;49.886;8.074;2022-10-16T06:06:21;3.40;;;1.37;;
10894;SDS011;5500;49.886;8.074;2022-10-16T06:08:50;5.10;;;1.40;;
10894;SDS011;5500;49.886;8.074;2022-10-16T06:11:18;3.33;;;1.80;;
10894;SDS011;5500;49.886;8.074;2022-10-16T06:13:48;2.63;;;1.40;;
10894;SDS011;5500;49.886;8.074;2022-10-16T06:16:17;2.23;;;1.40;;
10894;SDS011;5500;49.886;8.074;2022-10-16T06:18:46;1.57;;;1.47;;
10894;SDS011;5500;49.886;8.074;2022-10-16T06:21:14;2.53;;;1.53;;
10894;SDS011;5500;49.886;8.074;2022-10-16T06:23:43;2.73;;;1.60;;
10894;SDS011;5500;49.886;8.074;2022-10-16T06:26:12;2.30;;;1.37;;
10894;SDS011;5500;49.886;8.074;2022-10-16T06:28:41;1.20;;;1.20;;
10894;SDS011;5500;49.886;8.074;2022-10-16T06:31:09;2.13;;;1.37;;
10894;SDS011;5500;49.886;8.074;2022-10-16T06:33:39;2.27;;;1.50;;
10894;SDS011;5500;49.886;8.074;2022-10-16T06:36:08;1.73;;;1.27;;
10894;SDS011;5500;49.886;8.074;2022-10-16T06:38:36;2.93;;;1.33;;
10894;SDS011;5500;49.886;8.074;2022-10-16T06:41:05;1.67;;;1.13;;
10894;SDS011;5500;49.886;8.074;2022-10-16T06:43:33;1.67;;;1.10;;
10894;SDS011;5500;49.886;8.074;2022-10-16T06:46:02;5.07;;;1.73;;
10894;SDS011;5500;49.886;8.074;2022-10-16T06:48:30;1.50;;;1.40;;
10894;SDS011;5500;49.886;8.074;2022-10-16T06:51:00;1.73;;;1.23;;
10894;SDS011;5500;49.886;8.074;2022-10-16T06:53:34;1.30;;;1.20;;
10894;SDS011;5500;49.886;8.074;2022-10-16T06:56:25;2.50;;;1.20;;
10894;SDS011;5500;49.886;8.074;2022-10-16T06:58:54;1.13;;;1.03;;
10894;SDS011;5500;49.886;8.074;2022-10-16T07:01:23;1.30;;;1.20;;
10894;SDS011;5500;49.886;8.074;2022-10-16T07:03:51;5.93;;;1.70;;
10894;SDS011;5500;49.886;8.074;2022-10-16T07:06:21;4.93;;;1.33;;
10894;SDS011;5500;49.886;8.074;2022-10-16T07:08:50;2.83;;;1.30;;
10894;SDS011;5500;49.886;8.074;2022-10-16T07:11:19;2.00;;;1.33;;
10894;SDS011;5500;49.886;8.074;2022-10-16T07:13:47;3.03;;;1.30;;
10894;SDS011;5500;49.886;8.074;2022-10-16T07:16:22;2.03;;;1.37;;
10894;SDS011;5500;49.886;8.074;2022-10-16T07:18:50;1.90;;;1.47;;
10894;SDS011;5500;49.886;8.074;2022-10-16T07:21:25;2.03;;;1.43;;
10894;SDS011;5500;49.886;8.074;2022-10-16T07:23:55;4.83;;;1.80;;
10894;SDS011;5500;49.886;8.074;2022-10-16T07:26:23;2.13;;;1.67;;
10894;SDS011;5500;49.886;8.074;2022-10-16T07:28:51;3.23;;;1.67;;
10894;SDS011;5500;49.886;8.074;2022-10-16T07:31:20;5.53;;;1.77;;
10894;SDS011;5500;49.886;8.074;2022-10-16T07:33:48;4.60;;;1.40;;
10894;SDS011;5500;49.886;8.074;2022-10-16T07:36:17;2.13;;;1.60;;
10894;SDS011;5500;49.886;8.074;2022-10-16T07:38:46;4.93;;;1.40;;
10894;SDS011;5500;49.886;8.074;2022-10-16T07:41:15;1.93;;;1.40;;
10894;SDS011;5500;49.886;8.074;2022-10-16T07:43:45;1.47;;;1.20;;
10894;SDS011;5500;49.886;8.074;2022-10-16T07:46:12;1.10;;;1.00;;
10894;SDS011;5500;49.886;8.074;2022-10-16T07:48:40;1.60;;;1.50;;
10894;SDS011;5500;49.886;8.074;2022-10-16T07:51:12;3.97;;;1.30;;
10894;SDS011;5500;49.886;8.074;2022-10-16T07:53:40;2.73;;;1.37;;
10894;SDS011;5500;49.886;8.074;2022-10-16T07:56:09;1.30;;;1.20;;
10894;SDS011;5500;49.886;8.074;2022-10-16T07:58:37;1.93;;;1.47;;
10894;SDS011;5500;49.886;8.074;2022-10-16T08:01:05;2.30;;;1.57;;
10894;SDS011;5500;49.886;8.074;2022-10-16T08:03:34;1.53;;;1.30;;
10894;SDS011;5500;49.886;8.074;2022-10-16T08:06:01;3.93;;;1.90;;
10894;SDS011;5500;49.886;8.074;2022-10-16T08:08:30;2.00;;;1.80;;
10894;SDS011;5500;49.886;8.074;2022-10-16T08:10:57;4.50;;;1.90;;
10894;SDS011;5500;49.886;8.074;2022-10-16T08:13:26;3.17;;;1.47;;
10894;SDS011;5500;49.886;8.074;2022-10-16T08:15:54;5.13;;;1.63;;
10894;SDS011;5500;49.886;8.074;2022-10-16T08:18:22;4.13;;;1.60;;
10894;SDS011;5500;49.886;8.074;2022-10-16T08:20:54;2.23;;;1.70;;
10894;SDS011;5500;49.886;8.074;2022-10-16T08:23:22;3.73;;;1.40;;
10894;SDS011;5500;49.886;8.074;2022-10-16T08:25:52;2.37;;;1.50;;
10894;SDS011;5500;49.886;8.074;2022-10-16T08:28:20;1.80;;;1.70;;
10894;SDS011;5500;49.886;8.074;2022-10-16T08:30:50;2.43;;;1.70;;
10894;SDS011;5500;49.886;8.074;2022-10-16T08:33:17;1.57;;;1.47;;
10894;SDS011;5500;49.886;8.074;2022-10-16T08:35:50;2.13;;;1.63;;
10894;SDS011;5500;49.886;8.074;2022-10-16T08:38:18;1.50;;;1.40;;
10894;SDS011;5500;49.886;8.074;2022-10-16T08:40:49;1.53;;;1.43;;
10894;SDS011;5500;49.886;8.074;2022-10-16T08:43:26;1.60;;;1.50;;
10894;SDS011;5500;49.886;8.074;2022-10-16T08:46:07;2.07;;;1.53;;
10894;SDS011;5500;49.886;8.074;2022-10-16T08:48:51;1.50;;;1.40;;
10894;SDS011;5500;49.886;8.074;2022-10-16T08:51:22;1.67;;;1.57;;
10894;SDS011;5500;49.886;8.074;2022-10-16T08:53:52;2.30;;;2.03;;
10894;SDS011;5500;49.886;8.074;2022-10-16T08:56:21;1.97;;;1.87;;
10894;SDS011;5500;49.886;8.074;2022-10-16T08:58:50;4.33;;;1.80;;
10894;SDS011;5500;49.886;8.074;2022-10-16T09:01:29;4.90;;;2.23;;
10894;SDS011;5500;49.886;8.074;2022-10-16T09:04:14;2.20;;;1.93;;
10894;SDS011;5500;49.886;8.074;2022-10-16T09:06:54;2.53;;;2.07;;
10894;SDS011;5500;49.886;8.074;2022-10-16T09:09:27;3.43;;;2.00;;
10894;SDS011;5500;49.886;8.074;2022-10-16T09:12:04;4.17;;;2.30;;
10894;SDS011;5500;49.886;8.074;2022-10-16T09:14:41;6.10;;;2.73;;
10894;SDS011;5500;49.886;8.074;2022-10-16T09:17:22;2.83;;;2.10;;
10894;SDS011;5500;49.886;8.074;2022-10-16T09:19:56;2.20;;;1.80;;
10894;SDS011;5500;49.886;8.074;2022-10-16T09:22:31;2.77;;;2.00;;
10894;SDS011;5500;49.886;8.074;2022-10-16T09:24:59;2.10;;;1.97;;
10894;SDS011;5500;49.886;8.074;2022-10-16T09:27:28;2.60;;;2.40;;
10894;SDS011;5500;49.886;8.074;2022-10-16T09:29:56;2.97;;;2.07;;
10894;SDS011;5500;49.886;8.074;2022-10-16T09:32:26;2.20;;;2.00;;
10894;SDS011;5500;49.886;8.074;2022-10-16T09:34:55;4.40;;;2.00;;
10894;SDS011;5500;49.886;8.074;2022-10-16T09:37:24;2.00;;;1.90;;
10894;SDS011;5500;49.886;8.074;2022-10-16T09:39:54;6.30;;;2.00;;
10894;SDS011;5500;49.886;8.074;2022-10-16T09:42:22;3.17;;;1.73;;
10894;SDS011;5500;49.886;8.074;2022-10-16T09:44:52;3.40;;;2.07;;
10894;SDS011;5500;49.886;8.074;2022-10-16T09:47:21;2.80;;;2.60;;
10894;SDS011;5500;49.886;8.074;2022-10-16T09:49:52;2.90;;;2.70;;
10894;SDS011;5500;49.886;8.074;2022-10-16T09:52:21;3.47;;;3.27;;
10894;SDS011;5500;49.886;8.074;2022-10-16T09:54:50;6.57;;;4.37;;
10894;SDS011;5500;49.886;8.074;2022-10-16T09:57:19;4.87;;;4.47;;
10894;SDS011;5500;49.886;8.074;2022-10-16T09:59:48;5.70;;;3.70;;
10894;SDS011;5500;49.886;8.074;2022-10-16T10:02:16;4.80;;;3.60;;
10894;SDS011;5500;49.886;8.074;2022-10-16T10:04:48;4.17;;;3.50;;
10894;SDS011;5500;49.886;8.074;2022-10-16T10:07:19;4.10;;;3.80;;
10894;SDS011;5500;49.886;8.074;2022-10-16T10:09:51;7.60;;;3.03;;
10894;SDS011;5500;49.886;8.074;2022-10-16T10:12:20;2.87;;;2.67;;
10894;SDS011;5500;49.886;8.074;2022-10-16T10:14:52;3.33;;;3.07;;
10894;SDS011;5500;49.886;8.074;2022-10-16T10:17:22;2.73;;;2.50;;
10894;SDS011;5500;49.886;8.074;2022-10-16T10:19:51;3.77;;;3.10;;
10894;SDS011;5500;49.886;8.074;2022-10-16T10:22:31;3.77;;;3.47;;
10894;SDS011;5500;49.886;8.074;2022-10-16T10:28:21;2.67;;;2.30;;
10894;SDS011;5500;49.886;8.074;2022-10-16T10:30:56;3.53;;;2.60;;
10894;SDS011;5500;49.886;8.074;2022-10-16T10:33:28;2.80;;;2.40;;
10894;SDS011;5500;49.886;8.074;2022-10-16T10:36:04;3.40;;;2.70;;
10894;SDS011;5500;49.886;8.074;2022-10-16T10:38:39;2.23;;;2.10;;
10894;SDS011;5500;49.886;8.074;2022-10-16T10:41:19;3.97;;;2.10;;
10894;SDS011;5500;49.886;8.074;2022-10-16T10:43:58;2.80;;;1.50;;
10894;SDS011;5500;49.886;8.074;2022-10-16T10:46:32;2.63;;;2.00;;
10894;SDS011;5500;49.886;8.074;2022-10-16T10:49:14;2.00;;;1.80;;
10894;SDS011;5500;49.886;8.074;2022-10-16T10:51:51;1.63;;;1.50;;
10894;SDS011;5500;49.886;8.074;2022-10-16T10:54:31;2.20;;;2.00;;
10894;SDS011;5500;49.886;8.074;2022-10-16T10:57:06;2.33;;;1.60;;
10894;SDS011;5500;49.886;8.074;2022-10-16T10:59:39;3.20;;;1.40;;
10894;SDS011;5500;49.886;8.074;2022-10-16T11:02:18;3.83;;;1.90;;
10894;SDS011;5500;49.886;8.074;2022-10-16T11:04:55;1.77;;;1.67;;
10894;SDS011;5500;49.886;8.074;2022-10-16T11:07:30;2.27;;;1.50;;
10894;SDS011;5500;49.886;8.074;2022-10-16T11:10:03;2.00;;;1.80;;
10894;SDS011;5500;49.886;8.074;2022-10-16T11:12:36;2.87;;;1.73;;
10894;SDS011;5500;49.886;8.074;2022-10-16T11:15:10;2.47;;;1.80;;
10894;SDS011;5500;49.886;8.074;2022-10-16T11:17:40;4.23;;;1.90;;
10894;SDS011;5500;49.886;8.074;2022-10-16T11:20:12;3.10;;;1.90;;
10894;SDS011;5500;49.886;8.074;2022-10-16T11:22:42;2.63;;;2.00;;
10894;SDS011;5500;49.886;8.074;2022-10-16T11:25:15;3.20;;;1.73;;
10894;SDS011;5500;49.886;8.074;2022-10-16T11:27:47;1.80;;;1.47;;
10894;SDS011;5500;49.886;8.074;2022-10-16T11:30:19;2.10;;;1.53;;
10894;SDS011;5500;49.886;8.074;2022-10-16T11:32:52;1.50;;;1.40;;
10894;SDS011;5500;49.886;8.074;2022-10-16T11:35:25;4.30;;;1.93;;
10894;SDS011;5500;49.886;8.074;2022-10-16T11:37:58;1.83;;;1.50;;
10894;SDS011;5500;49.886;8.074;2022-10-16T11:40:31;1.73;;;1.33;;
10894;SDS011;5500;49.886;8.074;2022-10-16T11:43:02;1.40;;;1.30;;
10894;SDS011;5500;49.886;8.074;2022-10-16T11:45:39;1.93;;;1.53;;
10894;SDS011;5500;49.886;8.074;2022-10-16T11:48:12;1.93;;;1.40;;
10894;SDS011;5500;49.886;8.074;2022-10-16T11:50:46;1.63;;;1.47;;
10894;SDS011;5500;49.886;8.074;2022-10-16T11:53:19;1.83;;;1.47;;
10894;SDS011;5500;49.886;8.074;2022-10-16T11:55:52;1.90;;;1.47;;
10894;SDS011;5500;49.886;8.074;2022-10-16T11:58:22;1.57;;;1.47;;
10894;SDS011;5500;49.886;8.074;2022-10-16T12:00:54;2.93;;;1.60;;
10894;SDS011;5500;49.886;8.074;2022-10-16T12:03:26;1.37;;;1.23;;
10894;SDS011;5500;49.886;8.074;2022-10-16T12:05:59;1.40;;;1.30;;
10894;SDS011;5500;49.886;8.074;2022-10-16T12:08:34;4.13;;;1.87;;
10894;SDS011;5500;49.886;8.074;2022-10-16T12:11:19;1.67;;;1.33;;
10894;SDS011;5500;49.886;8.074;2022-10-16T12:13:49;2.10;;;1.73;;
10894;SDS011;5500;49.886;8.074;2022-10-16T12:16:20;5.47;;;1.90;;
10894;SDS011;5500;49.886;8.074;2022-10-16T12:18:49;1.73;;;1.60;;
10894;SDS011;5500;49.886;8.074;2022-10-16T12:21:30;4.70;;;1.80;;
10894;SDS011;5500;49.886;8.074;2022-10-16T12:23:58;2.87;;;1.70;;
10894;SDS011;5500;49.886;8.074;2022-10-16T12:26:29;1.53;;;1.43;;
10894;SDS011;5500;49.886;8.074;2022-10-16T12:29:09;3.17;;;1.40;;
10894;SDS011;5500;49.886;8.074;2022-10-16T12:31:43;2.10;;;1.63;;
10894;SDS011;5500;49.886;8.074;2022-10-16T12:34:23;3.10;;;1.60;;
10894;SDS011;5500;49.886;8.074;2022-10-16T12:36:54;3.10;;;1.60;;
10894;SDS011;5500;49.886;8.074;2022-10-16T12:39:23;2.07;;;1.37;;
10894;SDS011;5500;49.886;8.074;2022-10-16T12:42:02;3.83;;;1.70;;
10894;SDS011;5500;49.886;8.074;2022-10-16T12:44:33;2.90;;;1.40;;
10894;SDS011;5500;49.886;8.074;2022-10-16T12:47:02;2.73;;;1.87;;
10894;SDS011;5500;49.886;8.074;2022-10-16T12:49:35;3.53;;;1.50;;
10894;SDS011;5500;49.886;8.074;2022-10-16T12:52:04;2.23;;;1.30;;
10894;SDS011;5500;49.886;8.074;2022-10-16T12:54:34;4.10;;;1.80;;
10894;SDS011;5500;49.886;8.074;2022-10-16T12:57:12;3.20;;;1.53;;
10894;SDS011;5500;49.886;8.074;2022-10-16T12:59:48;3.90;;;1.47;;
10894;SDS011;5500;49.886;8.074;2022-10-16T13:02:38;3.33;;;1.70;;
10894;SDS011;5500;49.886;8.074;2022-10-16T13:05:14;2.47;;;1.70;;
10894;SDS011;5500;49.886;8.074;2022-10-16T13:07:52;2.30;;;1.70;;
10894;SDS011;5500;49.886;8.074;2022-10-16T13:10:25;2.07;;;1.83;;
10894;SDS011;5500;49.886;8.074;2022-10-16T13:13:05;2.47;;;1.70;;
10894;SDS011;5500;49.886;8.074;2022-10-16T13:15:48;2.27;;;1.57;;
10894;SDS011;5500;49.886;8.074;2022-10-16T13:18:26;2.30;;;2.10;;
10894;SDS011;5500;49.886;8.074;2022-10-16T13:21:01;1.83;;;1.67;;
10894;SDS011;5500;49.886;8.074;2022-10-16T13:23:33;5.13;;;2.00;;
10894;SDS011;5500;49.886;8.074;2022-10-16T13:26:06;1.73;;;1.63;;
10894;SDS011;5500;49.886;8.074;2022-10-16T13:28:40;2.03;;;1.87;;
10894;SDS011;5500;49.886;8.074;2022-10-16T13:31:10;2.10;;;1.83;;
10894;SDS011;5500;49.886;8.074;2022-10-16T13:33:43;2.30;;;2.10;;
10894;SDS011;5500;49.886;8.074;2022-10-16T13:36:18;3.03;;;2.20;;
10894;SDS011;5500;49.886;8.074;2022-10-16T13:38:47;2.10;;;1.90;;
10894;SDS011;5500;49.886;8.074;2022-10-16T13:41:15;8.70;;;2.47;;
10894;SDS011;5500;49.886;8.074;2022-10-16T13:43:46;3.23;;;2.10;;
10894;SDS011;5500;49.886;8.074;2022-10-16T13:46:15;2.63;;;2.03;;
10894;SDS011;5500;49.886;8.074;2022-10-16T13:48:44;3.50;;;1.90;;
10894;SDS011;5500;49.886;8.074;2022-10-16T13:51:12;2.07;;;1.90;;
10894;SDS011;5500;49.886;8.074;2022-10-16T13:53:41;2.80;;;2.07;;
10894;SDS011;5500;49.886;8.074;2022-10-16T13:56:11;2.40;;;2.20;;
10894;SDS011;5500;49.886;8.074;2022-10-16T13:58:39;2.13;;;1.93;;
10894;SDS011;5500;49.886;8.074;2022-10-16T14:01:15;2.10;;;1.90;;
10894;SDS011;5500;49.886;8.074;2022-10-16T14:03:43;5.80;;;2.77;;
10894;SDS011;5500;49.886;8.074;2022-10-16T14:06:12;3.93;;;2.10;;
10894;SDS011;5500;49.886;8.074;2022-10-16T14:08:42;4.90;;;1.80;;
10894;SDS011;5500;49.886;8.074;2022-10-16T14:11:10;2.07;;;1.80;;
10894;SDS011;5500;49.886;8.074;2022-10-16T14:13:39;5.07;;;1.70;;
10894;SDS011;5500;49.886;8.074;2022-10-16T14:16:10;4.13;;;2.20;;
10894;SDS011;5500;49.886;8.074;2022-10-16T14:18:51;2.63;;;2.00;;
10894;SDS011;5500;49.886;8.074;2022-10-16T14:21:22;2.90;;;2.00;;
10894;SDS011;5500;49.886;8.074;2022-10-16T14:23:50;2.17;;;1.97;;
10894;SDS011;5500;49.886;8.074;2022-10-16T14:26:19;3.53;;;2.03;;
10894;SDS011;5500;49.886;8.074;2022-10-16T14:28:48;1.60;;;1.50;;
10894;SDS011;5500;49.886;8.074;2022-10-16T14:31:24;4.00;;;2.23;;
10894;SDS011;5500;49.886;8.074;2022-10-16T14:33:54;2.33;;;1.83;;
10894;SDS011;5500;49.886;8.074;2022-10-16T14:36:22;5.43;;;2.00;;
10894;SDS011;5500;49.886;8.074;2022-10-16T14:38:54;4.50;;;2.17;;
10894;SDS011;5500;49.886;8.074;2022-10-16T14:41:25;5.63;;;2.13;;
10894;SDS011;5500;49.886;8.074;2022-10-16T14:43:53;11.30;;;2.40;;
10894;SDS011;5500;49.886;8.074;2022-10-16T14:46:22;2.77;;;2.10;;
10894;SDS011;5500;49.886;8.074;2022-10-16T14:48:59;4.07;;;2.10;;
10894;SDS011;5500;49.886;8.074;2022-10-16T14:51:28;4.53;;;1.80;;
10894;SDS011;5500;49.886;8.074;2022-10-16T14:53:56;2.10;;;1.90;;
10894;SDS011;5500;49.886;8.074;2022-10-16T14:56:27;2.13;;;1.90;;
10894;SDS011;5500;49.886;8.074;2022-10-16T14:58:58;5.80;;;2.10;;
10894;SDS011;5500;49.886;8.074;2022-10-16T15:01:26;2.47;;;2.00;;
10894;SDS011;5500;49.886;8.074;2022-10-16T15:03:54;4.40;;;2.60;;
10894;SDS011;5500;49.886;8.074;2022-10-16T15:06:23;3.07;;;2.00;;
10894;SDS011;5500;49.886;8.074;2022-10-16T15:08:50;2.90;;;1.80;;
10894;SDS011;5500;49.886;8.074;2022-10-16T15:11:18;2.40;;;2.20;;
10894;SDS011;5500;49.886;8.074;2022-10-16T15:13:46;2.10;;;1.90;;
10894;SDS011;5500;49.886;8.074;2022-10-16T15:16:15;2.13;;;1.83;;
10894;SDS011;5500;49.886;8.074;2022-10-16T15:18:43;7.13;;;2.07;;
10894;SDS011;5500;49.886;8.074;2022-10-16T15:21:12;3.67;;;2.20;;
10894;SDS011;5500;49.886;8.074;2022-10-16T15:23:48;3.77;;;2.13;;